createdAt,value
2018-10-12T00:00:24.950Z,70.79
2018-10-12T00:01:24.911Z,71.09
2018-10-12T00:02:24.921Z,70.59
2018-10-12T00:03:24.906Z,71.00
2018-10-12T00:04:24.884Z,71.09
2018-10-12T00:05:24.901Z,71.06
2018-10-12T00:06:24.875Z,70.89
2018-10-12T00:07:24.847Z,70.79
2018-10-12T00:08:24.846Z,71.20
2018-10-12T00:09:24.828Z,70.76
2018-10-12T00:10:24.931Z,70.86
2018-10-12T00:11:24.809Z,71.06
2018-10-12T00:12:24.794Z,70.69
2018-10-12T00:13:24.788Z,71.09
2018-10-12T00:14:24.773Z,70.86
2018-10-12T00:15:24.812Z,70.86
2018-10-12T00:16:24.759Z,71.09
2018-10-12T00:17:24.741Z,70.76
2018-10-12T00:18:24.782Z,71.20
2018-10-12T00:19:24.728Z,71.00
2018-10-12T00:20:24.747Z,71.30
2018-10-12T00:21:24.707Z,71.09
2018-10-12T00:22:24.700Z,71.70
2018-10-12T00:23:24.676Z,71.40
2018-10-12T00:24:24.677Z,71.40
2018-10-12T00:25:24.691Z,71.50
2018-10-12T00:26:24.638Z,71.40
2018-10-12T00:27:24.641Z,71.30
2018-10-12T00:28:24.695Z,71.60
2018-10-12T00:29:24.623Z,71.70
2018-10-12T00:30:24.626Z,71.80
2018-10-12T00:31:24.595Z,71.70
2018-10-12T00:32:24.576Z,71.70
2018-10-12T00:33:24.573Z,71.60
2018-10-12T00:34:24.569Z,71.60
2018-10-12T00:35:24.657Z,71.60
2018-10-12T00:36:24.562Z,72.11
2018-10-12T00:37:24.536Z,71.70
2018-10-12T00:38:24.514Z,71.60
2018-10-12T00:39:24.502Z,71.80
2018-10-12T00:40:24.533Z,71.70
2018-10-12T00:41:24.494Z,71.70
2018-10-12T00:42:24.546Z,72.01
2018-10-12T00:43:24.471Z,72.01
2018-10-12T00:44:24.464Z,72.14
2018-10-12T00:45:24.475Z,71.94
2018-10-12T00:46:24.440Z,72.21
2018-10-12T00:47:24.423Z,72.24
2018-10-12T00:48:24.408Z,71.91
2018-10-12T00:49:24.403Z,71.73
2018-10-12T00:50:24.514Z,71.91
2018-10-12T00:51:24.378Z,72.01
2018-10-12T00:52:24.373Z,72.24
2018-10-12T00:53:24.362Z,72.04
2018-10-12T00:54:24.358Z,72.45
2018-10-12T00:55:24.337Z,72.04
2018-10-12T00:56:24.359Z,72.24
2018-10-12T00:57:24.311Z,72.04
2018-10-12T00:58:24.383Z,72.24
2018-10-12T00:59:24.300Z,72.14
2018-10-12T01:00:24.276Z,72.34
2018-10-12T01:01:24.305Z,72.45
2018-10-12T01:02:24.265Z,72.14
2018-10-12T01:03:24.255Z,72.21
2018-10-12T01:04:24.342Z,72.21
2018-10-12T01:05:24.232Z,71.80
2018-10-12T01:06:24.249Z,71.70
2018-10-12T01:07:24.208Z,71.70
2018-10-12T01:08:24.194Z,72.21
2018-10-12T01:09:24.194Z,71.80
2018-10-12T01:10:24.301Z,71.70
2018-10-12T01:11:24.213Z,71.30
2018-10-12T01:12:24.164Z,71.70
2018-10-12T01:13:24.156Z,71.50
2018-10-12T01:14:24.150Z,71.70
2018-10-12T01:15:24.138Z,71.70
2018-10-12T01:16:24.113Z,71.44
2018-10-12T01:17:24.129Z,71.91
2018-10-12T01:18:24.167Z,71.91
2018-10-12T01:19:24.080Z,71.60
2018-10-12T01:20:24.073Z,71.91
2018-10-12T01:21:24.157Z,71.80
2018-10-12T01:22:24.069Z,71.73
2018-10-12T01:23:24.059Z,71.80
2018-10-12T01:24:24.041Z,71.60
2018-10-12T01:25:24.022Z,71.70
2018-10-12T01:26:24.090Z,71.30
2018-10-12T01:27:24.020Z,71.40
2018-10-12T01:28:23.988Z,71.37
2018-10-12T01:29:24.049Z,71.30
2018-10-12T01:30:23.975Z,71.30
2018-10-12T01:31:23.972Z,71.70
2018-10-12T01:32:24.013Z,71.40
2018-10-12T01:33:23.926Z,71.70
2018-10-12T01:34:23.930Z,71.70
2018-10-12T01:35:23.917Z,71.80
2018-10-12T01:36:23.913Z,71.70
2018-10-12T01:37:23.958Z,71.80
2018-10-12T01:38:23.906Z,71.30
2018-10-12T01:39:23.870Z,71.40
2018-10-12T01:40:23.961Z,71.47
2018-10-12T01:41:23.853Z,70.79
2018-10-12T01:42:23.831Z,70.86
2018-10-12T01:43:23.851Z,70.96
2018-10-12T01:44:23.820Z,70.65
2018-10-12T01:45:23.802Z,70.76
2018-10-12T01:46:23.861Z,70.76
2018-10-12T01:47:23.782Z,70.96
2018-10-12T01:48:23.844Z,70.65
2018-10-12T01:49:23.760Z,70.56
2018-10-12T01:50:23.758Z,70.36
2018-10-12T01:51:23.747Z,70.25
2018-10-12T01:52:23.727Z,69.85
2018-10-12T01:53:23.778Z,70.15
2018-10-12T01:54:23.740Z,70.15
2018-10-12T01:55:23.700Z,69.44
2018-10-12T01:56:23.693Z,70.15
2018-10-12T01:57:23.680Z,70.25
2018-10-12T01:58:23.703Z,70.25
2018-10-12T01:59:23.756Z,69.92
2018-10-12T02:00:23.642Z,70.25
2018-10-12T02:01:23.632Z,70.02
2018-10-12T02:02:23.619Z,70.45
2018-10-12T02:03:23.619Z,69.95
2018-10-12T02:04:23.643Z,70.45
2018-10-12T02:05:23.652Z,70.25
2018-10-12T02:06:23.581Z,70.25
2018-10-12T02:07:23.578Z,70.76
2018-10-12T02:08:23.557Z,70.86
2018-10-12T02:09:23.566Z,70.56
2018-10-12T02:10:23.571Z,71.16
2018-10-12T02:11:23.544Z,70.65
2018-10-12T02:12:23.565Z,70.59
2018-10-12T02:13:23.506Z,71.50
2018-10-12T02:14:23.516Z,70.79
2018-10-12T02:15:23.525Z,71.00
2018-10-12T02:16:23.484Z,71.26
2018-10-12T02:17:23.472Z,71.67
2018-10-12T02:18:23.516Z,71.91
2018-10-12T02:19:23.443Z,71.80
2018-10-12T02:20:23.477Z,72.21
2018-10-12T02:21:23.425Z,71.94
2018-10-12T02:22:23.423Z,72.01
2018-10-12T02:23:23.414Z,71.80
2018-10-12T02:24:23.393Z,72.14
2018-10-12T02:25:23.375Z,72.24
2018-10-12T02:26:23.459Z,72.24
2018-10-12T02:27:23.361Z,72.34
2018-10-12T02:28:23.348Z,72.45
2018-10-12T02:29:23.350Z,72.65
2018-10-12T02:30:23.329Z,72.75
2018-10-12T02:31:23.355Z,72.75
2018-10-12T02:32:23.328Z,72.55
2018-10-12T02:33:23.301Z,72.55
2018-10-12T02:34:23.339Z,72.85
2018-10-12T02:35:23.286Z,72.75
2018-10-12T02:36:23.310Z,73.29
2018-10-12T02:37:23.255Z,73.19
2018-10-12T02:38:23.250Z,73.05
2018-10-12T02:39:23.236Z,73.16
2018-10-12T02:40:23.233Z,73.39
2018-10-12T02:41:23.212Z,73.29
2018-10-12T02:42:23.236Z,72.96
2018-10-12T02:43:23.210Z,73.39
2018-10-12T02:44:23.232Z,73.39
2018-10-12T02:45:23.185Z,73.70
2018-10-12T02:46:23.165Z,73.90
2018-10-12T02:47:23.191Z,74.34
2018-10-12T02:48:23.143Z,74.10
2018-10-12T02:49:23.133Z,74.74
2018-10-12T02:50:23.191Z,74.85
2018-10-12T02:51:23.112Z,74.74
2018-10-12T02:52:23.123Z,74.85
2018-10-12T02:53:23.162Z,74.54
2018-10-12T02:54:23.091Z,75.15
2018-10-12T02:55:23.094Z,75.46
2018-10-12T02:56:23.067Z,74.85
2018-10-12T02:57:23.057Z,75.15
2018-10-12T02:58:23.061Z,74.74
2018-10-12T02:59:23.018Z,75.05
2018-10-12T03:00:23.105Z,74.54
2018-10-12T03:01:23.016Z,74.54
2018-10-12T03:02:22.988Z,74.41
2018-10-12T03:03:23.016Z,74.44
2018-10-12T03:04:22.983Z,74.41
2018-10-12T03:05:22.966Z,74.14
2018-10-12T03:06:22.963Z,74.41
2018-10-12T03:07:22.944Z,74.10
2018-10-12T03:08:22.968Z,74.30
2018-10-12T03:09:22.963Z,74.00
2018-10-12T03:10:22.906Z,74.00
2018-10-12T03:11:22.901Z,74.00
2018-10-12T03:12:22.890Z,73.86
2018-10-12T03:13:22.924Z,73.56
2018-10-12T03:14:22.901Z,73.02
2018-10-12T03:15:22.848Z,73.22
2018-10-12T03:16:22.838Z,72.81
2018-10-12T03:17:22.906Z,72.61
2018-10-12T03:18:22.830Z,72.61
2018-10-12T03:19:22.841Z,72.52
2018-10-12T03:20:22.813Z,72.61
2018-10-12T03:21:22.795Z,72.61
2018-10-12T03:22:22.792Z,72.52
2018-10-12T03:23:22.772Z,72.65
2018-10-12T03:24:22.805Z,72.72
2018-10-12T03:25:22.759Z,72.52
2018-10-12T03:26:22.740Z,72.72
2018-10-12T03:27:22.731Z,72.61
2018-10-12T03:28:22.840Z,72.72
2018-10-12T03:29:22.716Z,72.81
2018-10-12T03:30:22.725Z,72.85
2018-10-12T03:31:22.702Z,73.02
2018-10-12T03:32:22.677Z,73.02
2018-10-12T03:33:22.667Z,73.16
2018-10-12T03:34:22.665Z,73.25
2018-10-12T03:35:22.785Z,73.12
2018-10-12T03:36:22.644Z,72.96
2018-10-12T03:37:22.730Z,73.05
2018-10-12T03:38:22.622Z,73.36
2018-10-12T03:39:22.613Z,73.16
2018-10-12T03:40:22.620Z,73.56
2018-10-12T03:41:22.616Z,73.46
2018-10-12T03:42:22.594Z,73.56
2018-10-12T03:43:22.555Z,73.36
2018-10-12T03:44:22.924Z,73.46
2018-10-12T03:45:22.582Z,73.76
2018-10-12T03:46:22.541Z,73.56
2018-10-12T03:47:22.509Z,73.76
2018-10-12T03:48:22.501Z,73.56
2018-10-12T03:49:22.868Z,73.66
2018-10-12T03:50:22.481Z,73.46
2018-10-12T03:51:22.502Z,73.76
2018-10-12T03:52:22.461Z,73.66
2018-10-12T03:53:22.452Z,73.86
2018-10-12T03:54:22.456Z,73.76
2018-10-12T03:55:22.430Z,73.76
2018-10-12T03:56:22.447Z,74.41
2018-10-12T03:57:22.406Z,74.00
2018-10-12T03:58:22.401Z,74.10
2018-10-12T03:59:22.396Z,74.30
2018-10-12T04:00:22.396Z,74.61
2018-10-12T04:01:22.892Z,74.71
2018-10-12T04:02:22.355Z,74.71
2018-10-12T04:03:22.346Z,75.05
2018-10-12T04:04:22.350Z,74.91
2018-10-12T04:05:22.323Z,74.95
2018-10-12T04:06:22.344Z,75.12
2018-10-12T04:07:22.326Z,75.01
2018-10-12T04:08:22.292Z,74.81
2018-10-12T04:09:22.393Z,74.91
2018-10-12T04:10:22.268Z,74.71
2018-10-12T04:11:22.287Z,75.01
2018-10-12T04:12:22.330Z,74.85
2018-10-12T04:13:22.238Z,75.35
2018-10-12T04:14:22.230Z,75.05
2018-10-12T04:15:22.240Z,75.25
2018-10-12T04:16:22.268Z,75.35
2018-10-12T04:17:22.200Z,75.25
2018-10-12T04:18:22.203Z,75.05
2018-10-12T04:19:22.181Z,75.66
2018-10-12T04:20:22.165Z,75.56
2018-10-12T04:21:22.212Z,75.52
2018-10-12T04:22:22.143Z,75.35
2018-10-12T04:23:22.151Z,75.35
2018-10-12T04:24:22.126Z,75.12
2018-10-12T04:25:22.148Z,75.22
2018-10-12T04:26:22.144Z,75.25
2018-10-12T04:27:22.093Z,75.82
2018-10-12T04:28:22.098Z,75.35
2018-10-12T04:29:22.072Z,75.56
2018-10-12T04:30:22.070Z,75.86
2018-10-12T04:31:22.110Z,75.35
2018-10-12T04:32:22.055Z,75.96
2018-10-12T04:33:22.066Z,76.06
2018-10-12T04:34:22.025Z,75.86
2018-10-12T04:35:22.018Z,75.96
2018-10-12T04:36:22.056Z,76.37
2018-10-12T04:37:21.986Z,75.96
2018-10-12T04:38:21.983Z,76.06
2018-10-12T04:39:21.974Z,76.37
2018-10-12T04:40:21.963Z,76.78
2018-10-12T04:41:21.974Z,76.37
2018-10-12T04:42:21.937Z,76.37
2018-10-12T04:43:21.954Z,76.87
2018-10-12T04:44:21.913Z,76.67
2018-10-12T04:45:21.902Z,77.18
2018-10-12T04:46:21.938Z,76.78
2018-10-12T04:47:21.991Z,76.91
2018-10-12T04:48:21.872Z,77.08
2018-10-12T04:49:21.875Z,76.67
2018-10-12T04:50:21.851Z,76.87
2018-10-12T04:51:21.875Z,77.08
2018-10-12T04:52:21.827Z,77.08
2018-10-12T04:53:21.822Z,76.87
2018-10-12T04:54:21.808Z,77.22
2018-10-12T04:55:21.821Z,77.42
2018-10-12T04:56:21.832Z,76.91
2018-10-12T04:57:21.777Z,77.48
2018-10-12T04:58:21.782Z,77.28
2018-10-12T04:59:21.761Z,77.52
2018-10-12T05:00:21.756Z,77.48
2018-10-12T05:01:21.784Z,77.32
2018-10-12T05:02:21.730Z,77.38
2018-10-12T05:03:21.777Z,77.62
2018-10-12T05:04:21.708Z,77.32
2018-10-12T05:05:21.694Z,77.01
2018-10-12T05:06:21.717Z,77.12
2018-10-12T05:07:21.680Z,77.12
2018-10-12T05:08:21.685Z,77.83
2018-10-12T05:09:21.653Z,77.83
2018-10-12T05:10:21.641Z,77.62
2018-10-12T05:11:21.660Z,77.62
2018-10-12T05:12:21.627Z,77.93
2018-10-12T05:13:21.606Z,77.83
2018-10-12T05:14:21.625Z,77.62
2018-10-12T05:15:21.602Z,77.72
2018-10-12T05:16:21.634Z,77.72
2018-10-12T05:17:21.566Z,77.72
2018-10-12T05:18:21.553Z,77.52
2018-10-12T05:19:21.554Z,77.62
2018-10-12T05:20:21.537Z,77.69
2018-10-12T05:21:21.559Z,77.52
2018-10-12T05:22:21.544Z,77.62
2018-10-12T05:23:21.511Z,77.93
2018-10-12T05:24:21.489Z,77.72
2018-10-12T05:25:21.483Z,77.93
2018-10-12T05:26:21.512Z,78.27
2018-10-12T05:27:21.466Z,78.03
2018-10-12T05:28:21.496Z,78.17
2018-10-12T05:29:21.443Z,78.64
2018-10-12T05:30:21.499Z,78.33
2018-10-12T05:31:21.446Z,78.23
2018-10-12T05:32:21.404Z,78.57
2018-10-12T05:33:21.398Z,78.44
2018-10-12T05:34:21.468Z,78.44
2018-10-12T05:35:21.379Z,78.47
2018-10-12T05:36:21.407Z,78.47
2018-10-12T05:37:21.360Z,78.47
2018-10-12T05:38:21.351Z,78.47
2018-10-12T05:39:21.333Z,78.53
2018-10-12T05:40:21.343Z,78.33
2018-10-12T05:41:21.345Z,78.57
2018-10-12T05:42:21.302Z,78.44
2018-10-12T05:43:21.420Z,78.67
2018-10-12T05:44:21.279Z,78.74
2018-10-12T05:45:21.272Z,78.74
2018-10-12T05:46:21.314Z,78.47
2018-10-12T05:47:21.278Z,78.74
2018-10-12T05:48:21.238Z,78.53
2018-10-12T05:49:21.232Z,78.74
2018-10-12T05:50:21.224Z,78.53
2018-10-12T05:51:21.238Z,78.33
2018-10-12T05:52:21.195Z,78.74
2018-10-12T05:53:21.194Z,79.14
2018-10-12T05:54:21.204Z,79.49
2018-10-12T05:55:21.169Z,79.28
2018-10-12T05:56:21.187Z,79.38
2018-10-12T05:57:21.151Z,79.38
2018-10-12T05:58:21.162Z,79.49
2018-10-12T05:59:21.126Z,79.28
2018-10-12T06:00:21.138Z,79.55
2018-10-12T06:01:21.273Z,79.59
2018-10-12T06:02:21.096Z,79.35
2018-10-12T06:03:21.083Z,79.45
2018-10-12T06:04:21.072Z,79.59
2018-10-12T06:05:21.056Z,79.55
2018-10-12T06:06:21.133Z,79.49
2018-10-12T06:07:21.032Z,79.28
2018-10-12T06:08:21.035Z,79.35
2018-10-12T06:09:21.051Z,79.18
2018-10-12T06:10:21.008Z,79.25
2018-10-12T06:11:21.126Z,79.18
2018-10-12T06:12:21.023Z,79.14
2018-10-12T06:13:20.975Z,79.18
2018-10-12T06:14:20.961Z,79.38
2018-10-12T06:16:20.989Z,79.25
2018-10-12T06:17:20.927Z,79.45
2018-10-12T06:18:20.937Z,79.65
2018-10-12T06:19:20.913Z,78.53
2018-10-12T06:20:20.899Z,78.60
2018-10-12T06:21:20.913Z,78.13
2018-10-12T06:22:20.873Z,77.93
2018-10-12T06:23:20.866Z,78.33
2018-10-12T06:24:20.895Z,78.30
2018-10-12T06:25:20.848Z,77.99
2018-10-12T06:26:20.863Z,77.89
2018-10-12T06:27:20.824Z,78.19
2018-10-12T06:28:20.815Z,78.30
2018-10-12T06:29:20.805Z,77.83
2018-10-12T06:30:20.818Z,78.19
2018-10-12T06:31:20.856Z,77.79
2018-10-12T06:32:20.769Z,77.79
2018-10-12T06:33:20.759Z,77.79
2018-10-12T06:34:20.749Z,77.75
2018-10-12T06:35:20.739Z,77.45
2018-10-12T06:36:20.771Z,77.69
2018-10-12T06:37:20.752Z,77.65
2018-10-12T06:38:20.710Z,77.55
2018-10-12T06:39:20.695Z,77.89
2018-10-12T06:40:20.691Z,77.55
2018-10-12T06:41:20.826Z,77.34
2018-10-12T06:42:20.670Z,76.74
2018-10-12T06:43:20.687Z,76.94
2018-10-12T06:44:20.651Z,77.21
2018-10-12T06:45:20.640Z,77.21
2018-10-12T06:46:20.667Z,77.31
2018-10-12T06:47:20.615Z,77.07
2018-10-12T06:48:20.601Z,76.70
2018-10-12T06:49:20.608Z,76.97
2018-10-12T06:50:20.585Z,75.85
2018-10-12T06:51:20.599Z,76.36
2018-10-12T06:52:20.566Z,75.52
2018-10-12T06:53:20.554Z,75.62
2018-10-12T06:54:20.543Z,75.11
2018-10-12T06:55:20.578Z,75.52
2018-10-12T06:56:20.562Z,74.98
2018-10-12T06:57:20.514Z,74.77
2018-10-12T06:58:20.510Z,74.67
2018-10-12T06:59:20.486Z,74.77
2018-10-12T07:00:20.474Z,74.47
2018-10-12T07:01:20.492Z,74.87
2018-10-12T07:02:20.479Z,74.57
2018-10-12T07:03:20.584Z,74.47
2018-10-12T07:04:20.435Z,74.37
2018-10-12T07:05:20.424Z,74.57
2018-10-12T07:06:20.441Z,74.07
2018-10-12T07:07:20.403Z,73.93
2018-10-12T07:08:20.405Z,74.13
2018-10-12T07:09:20.408Z,73.83
2018-10-12T07:10:20.405Z,74.13
2018-10-12T07:11:20.390Z,73.72
2018-10-12T07:12:20.347Z,73.72
2018-10-12T07:13:20.356Z,74.13
2018-10-12T07:14:20.329Z,73.83
2018-10-12T07:15:20.316Z,73.59
2018-10-12T07:16:20.335Z,73.69
2018-10-12T07:17:20.322Z,73.49
2018-10-12T07:18:20.301Z,73.59
2018-10-12T07:19:20.304Z,73.59
2018-10-12T07:20:20.307Z,73.79
2018-10-12T07:21:20.999Z,73.59
2018-10-12T07:22:20.248Z,73.59
2018-10-12T07:23:20.236Z,73.19
2018-10-12T07:24:20.222Z,73.19
2018-10-12T07:25:20.214Z,73.28
2018-10-12T07:26:20.271Z,72.95
2018-10-12T07:27:20.189Z,73.15
2018-10-12T07:28:20.181Z,72.88
2018-10-12T07:29:20.169Z,72.85
2018-10-12T07:30:20.160Z,72.88
2018-10-12T07:31:20.178Z,72.64
2018-10-12T07:32:20.165Z,73.25
2018-10-12T07:33:20.128Z,72.75
2018-10-12T07:34:20.123Z,72.64
2018-10-12T07:35:20.106Z,73.05
2018-10-12T07:36:20.134Z,72.85
2018-10-12T07:37:20.152Z,72.75
2018-10-12T07:38:20.107Z,72.85
2018-10-12T07:39:20.073Z,72.85
2018-10-12T07:40:20.062Z,72.95
2018-10-12T07:41:20.077Z,72.81
2018-10-12T07:42:20.105Z,72.34
2018-10-12T07:43:20.060Z,72.31
2018-10-12T07:44:20.014Z,72.44
2018-10-12T07:45:20.001Z,72.14
2018-10-12T07:46:20.027Z,72.11
2018-10-12T07:47:20.007Z,72.21
2018-10-12T07:48:19.980Z,72.41
2018-10-12T07:49:19.981Z,72.31
2018-10-12T07:50:19.950Z,71.87
2018-10-12T07:51:19.984Z,71.80
2018-10-12T07:52:19.934Z,71.77
2018-10-12T07:53:20.011Z,71.97
2018-10-12T07:54:19.906Z,71.97
2018-10-12T07:55:19.905Z,71.67
2018-10-12T07:56:20.033Z,71.67
2018-10-12T07:57:19.878Z,71.06
2018-10-12T07:58:19.865Z,71.06
2018-10-12T07:59:19.857Z,71.67
2018-10-12T08:00:19.976Z,71.57
2018-10-12T08:01:19.882Z,71.53
2018-10-12T08:02:19.837Z,71.37
2018-10-12T08:03:19.839Z,71.57
2018-10-12T08:04:19.807Z,71.47
2018-10-12T08:05:19.797Z,71.67
2018-10-12T08:06:19.923Z,71.23
2018-10-12T08:07:19.774Z,71.23
2018-10-12T08:08:19.770Z,70.83
2018-10-12T08:09:19.792Z,71.13
2018-10-12T08:10:19.751Z,70.42
2018-10-12T08:11:19.764Z,71.44
2018-10-12T08:12:19.723Z,71.23
2018-10-12T08:13:19.714Z,71.03
2018-10-12T08:14:19.762Z,71.00
2018-10-12T08:15:19.710Z,70.69
2018-10-12T08:16:19.746Z,70.69
2018-10-12T08:17:19.675Z,70.49
2018-10-12T08:18:19.660Z,70.29
2018-10-12T08:19:19.656Z,70.59
2018-10-12T08:20:19.703Z,69.99
2018-10-12T08:21:19.662Z,70.09
2018-10-12T08:22:19.635Z,69.65
2018-10-12T08:23:19.623Z,69.28
2018-10-12T08:24:19.622Z,69.35
2018-10-12T08:25:19.583Z,69.79
2018-10-12T08:26:19.600Z,70.15
2018-10-12T08:27:19.577Z,69.65
2018-10-12T08:28:19.552Z,69.45
2018-10-12T08:29:19.543Z,69.75
2018-10-12T08:30:19.555Z,70.15
2018-10-12T08:31:19.581Z,70.06
2018-10-12T08:32:19.521Z,69.42
2018-10-12T08:33:19.497Z,70.26
2018-10-12T08:34:19.489Z,69.21
2018-10-12T08:35:19.485Z,69.72
2018-10-12T08:36:19.611Z,69.21
2018-10-12T08:37:19.467Z,69.62
2018-10-12T08:38:19.444Z,68.51
2018-10-12T08:39:19.476Z,68.91
2018-10-12T08:40:19.431Z,68.68
2018-10-12T08:41:19.453Z,67.97
2018-10-12T08:42:19.406Z,68.88
2018-10-12T08:43:19.396Z,69.38
2018-10-12T08:44:19.391Z,68.68
2018-10-12T08:45:19.389Z,68.58
2018-10-12T08:46:19.395Z,67.88
2018-10-12T08:47:19.354Z,68.15
2018-10-12T08:48:19.335Z,68.15
2018-10-12T08:49:19.324Z,68.04
2018-10-12T08:50:19.313Z,68.15
2018-10-12T08:51:19.336Z,67.94
2018-10-12T08:52:19.326Z,68.65
2018-10-12T08:53:19.286Z,68.75
2018-10-12T08:54:19.274Z,67.94
2018-10-12T08:55:19.298Z,68.44
2018-10-12T08:56:19.281Z,67.11
2018-10-12T08:57:19.245Z,67.41
2018-10-12T08:58:19.257Z,67.61
2018-10-12T08:59:19.221Z,67.51
2018-10-12T09:00:19.209Z,67.71
2018-10-12T09:01:19.228Z,67.81
2018-10-12T09:02:19.190Z,67.98
2018-10-12T09:03:19.182Z,66.27
2018-10-12T09:04:19.176Z,65.90
2018-10-12T09:05:19.174Z,67.68
2018-10-12T09:06:19.172Z,66.97
2018-10-12T09:07:19.138Z,66.47
2018-10-12T09:08:19.118Z,66.57
2018-10-12T09:09:19.113Z,66.57
2018-10-12T09:10:19.112Z,66.07
2018-10-12T09:11:19.127Z,66.17
2018-10-12T09:12:19.153Z,66.67
2018-10-12T09:13:19.079Z,66.44
2018-10-12T09:14:19.068Z,66.24
2018-10-12T09:15:19.051Z,66.20
2018-10-12T09:16:19.131Z,65.20
2018-10-12T09:17:19.041Z,65.30
2018-10-12T09:18:19.025Z,65.50
2018-10-12T09:19:19.035Z,65.94
2018-10-12T09:20:19.091Z,65.30
2018-10-12T09:21:19.033Z,65.20
2018-10-12T09:22:18.974Z,65.80
2018-10-12T09:23:18.964Z,65.70
2018-10-12T09:24:18.952Z,65.60
2018-10-12T09:25:18.945Z,66.11
2018-10-12T09:26:18.981Z,65.50
2018-10-12T09:27:18.991Z,65.60
2018-10-12T09:28:18.910Z,66.24
2018-10-12T09:29:18.895Z,66.31
2018-10-12T09:30:18.919Z,65.91
2018-10-12T09:31:18.914Z,65.91
2018-10-12T09:32:18.869Z,66.51
2018-10-12T09:33:18.853Z,66.31
2018-10-12T09:34:18.883Z,66.00
2018-10-12T09:35:18.840Z,66.11
2018-10-12T09:36:18.864Z,66.00
2018-10-12T09:37:18.844Z,65.88
2018-10-12T09:38:18.808Z,66.08
2018-10-12T09:39:18.792Z,66.47
2018-10-12T09:40:18.800Z,65.88
2018-10-12T09:41:18.807Z,65.74
2018-10-12T09:42:18.810Z,65.04
2018-10-12T09:43:18.814Z,65.24
2018-10-12T09:44:18.743Z,64.34
2018-10-12T09:45:18.727Z,64.34
2018-10-12T09:46:18.744Z,64.94
2018-10-12T09:47:18.715Z,64.34
2018-10-12T09:48:18.735Z,64.64
2018-10-12T09:49:18.693Z,64.84
2018-10-12T09:50:18.741Z,64.40
2018-10-12T09:51:18.695Z,64.11
2018-10-12T09:52:18.656Z,64.21
2018-10-12T09:53:18.644Z,64.81
2018-10-12T09:54:18.661Z,65.11
2018-10-12T09:55:18.624Z,64.61
2018-10-12T09:56:18.648Z,63.70
2018-10-12T09:57:18.604Z,63.20
2018-10-12T09:58:18.598Z,63.90
2018-10-12T09:59:18.588Z,63.50
2018-10-12T10:00:18.594Z,63.70
2018-10-12T10:01:18.594Z,63.47
2018-10-12T10:02:18.624Z,63.28
2018-10-12T10:03:18.547Z,63.17
2018-10-12T10:04:18.527Z,63.07
2018-10-12T10:05:18.524Z,62.87
2018-10-12T10:06:18.566Z,62.47
2018-10-12T10:07:18.504Z,62.57
2018-10-12T10:08:18.666Z,62.84
2018-10-12T10:09:18.493Z,62.54
2018-10-12T10:10:18.465Z,63.14
2018-10-12T10:11:18.482Z,63.14
2018-10-12T10:12:18.456Z,62.51
2018-10-12T10:13:18.452Z,62.54
2018-10-12T10:14:18.425Z,62.71
2018-10-12T10:15:18.474Z,62.51
2018-10-12T10:16:18.433Z,62.41
2018-10-12T10:17:18.394Z,61.71
2018-10-12T10:18:18.383Z,62.51
2018-10-12T10:19:18.473Z,61.41
2018-10-12T10:20:18.396Z,61.91
2018-10-12T10:21:18.385Z,61.81
2018-10-12T10:22:18.397Z,61.91
2018-10-12T10:23:18.696Z,61.18
2018-10-12T10:24:18.320Z,61.28
2018-10-12T10:25:18.308Z,61.21
2018-10-12T10:26:18.367Z,62.08
2018-10-12T10:27:18.288Z,60.58
2018-10-12T10:28:18.279Z,60.48
2018-10-12T10:29:18.366Z,60.58
2018-10-12T10:30:18.258Z,60.18
2018-10-12T10:31:18.286Z,60.25
2018-10-12T10:32:18.287Z,60.78
2018-10-12T10:33:18.263Z,60.85
2018-10-12T10:34:18.224Z,61.35
2018-10-12T10:35:18.206Z,59.95
2018-10-12T10:36:18.231Z,60.25
2018-10-12T10:37:18.187Z,60.75
2018-10-12T10:38:18.173Z,60.25
2018-10-12T10:39:18.185Z,60.35
2018-10-12T10:40:18.150Z,60.75
2018-10-12T10:41:18.171Z,60.45
2018-10-12T10:42:18.139Z,60.12
2018-10-12T10:43:18.122Z,59.92
2018-10-12T10:44:18.113Z,59.92
2018-10-12T10:45:18.127Z,59.52
2018-10-12T10:46:18.168Z,59.72
2018-10-12T10:47:18.074Z,60.22
2018-10-12T10:48:18.070Z,60.62
2018-10-12T10:49:18.058Z,60.62
2018-10-12T10:50:18.049Z,60.72
2018-10-12T10:51:18.096Z,60.22
2018-10-12T10:52:18.026Z,59.69
2018-10-12T10:53:18.018Z,59.92
2018-10-12T10:54:18.000Z,59.49
2018-10-12T10:55:17.994Z,59.52
2018-10-12T10:56:18.009Z,59.59
2018-10-12T10:57:17.990Z,60.10
2018-10-12T10:58:17.987Z,58.19
2018-10-12T10:59:17.952Z,59.19
2018-10-12T11:00:17.940Z,59.09
2018-10-12T11:01:17.962Z,58.76
2018-10-12T11:02:17.916Z,58.06
2018-10-12T11:03:17.908Z,57.54
2018-10-12T11:04:17.902Z,56.74
2018-10-12T11:05:17.934Z,56.11
2018-10-12T11:06:17.920Z,55.56
2018-10-12T11:07:17.869Z,52.97
2018-10-12T11:08:17.852Z,51.52
2018-10-12T11:09:17.844Z,50.43
2018-10-12T11:10:17.834Z,49.78
2018-10-12T11:11:17.878Z,50.33
2018-10-12T11:12:17.903Z,51.12
2018-10-12T11:13:17.873Z,51.95
2018-10-12T11:14:17.801Z,52.04
2018-10-12T11:15:17.795Z,52.07
2018-10-12T11:16:17.818Z,51.75
2018-10-12T11:17:17.768Z,52.37
2018-10-12T11:18:17.784Z,53.19
2018-10-12T11:19:17.766Z,53.31
2018-10-12T11:20:17.738Z,52.19
2018-10-12T11:21:17.760Z,52.79
2018-10-12T11:22:17.711Z,51.03
2018-10-12T11:23:17.707Z,50.65
2018-10-12T11:24:17.709Z,50.50
2018-10-12T11:25:17.704Z,49.26
2018-10-12T11:26:17.800Z,48.72
2018-10-12T11:27:17.684Z,47.41
2018-10-12T11:28:17.656Z,46.69
2018-10-12T11:29:17.639Z,46.07
2018-10-12T11:30:17.632Z,45.56
2018-10-12T11:31:17.682Z,45.85
2018-10-12T11:32:17.616Z,46.71
2018-10-12T11:33:17.604Z,46.30
2018-10-12T11:34:17.593Z,46.05
2018-10-12T11:35:17.576Z,44.45
2018-10-12T11:36:17.603Z,44.52
2018-10-12T11:37:17.590Z,43.98
2018-10-12T11:38:17.581Z,42.48
2018-10-12T11:39:17.540Z,43.93
2018-10-12T11:40:17.537Z,45.48
2018-10-12T11:41:17.551Z,46.09
2018-10-12T11:42:17.506Z,45.78
2018-10-12T11:43:17.526Z,45.45
2018-10-12T11:44:17.481Z,44.64
2018-10-12T11:45:17.505Z,43.93
2018-10-12T11:46:17.496Z,44.46
2018-10-12T11:47:17.448Z,46.47
2018-10-12T11:48:17.443Z,44.52
2018-10-12T11:49:17.464Z,44.50
2018-10-12T11:50:17.427Z,43.29
2018-10-12T11:51:17.441Z,42.90
2018-10-12T11:52:17.491Z,43.07
2018-10-12T11:53:17.400Z,43.24
2018-10-12T11:54:17.373Z,43.31
2018-10-12T11:55:17.379Z,42.60
2018-10-12T11:56:17.422Z,44.05
2018-10-12T11:57:17.339Z,44.59
2018-10-12T11:58:17.338Z,45.16
2018-10-12T11:59:17.340Z,43.91
2018-10-12T12:00:17.313Z,44.24
2018-10-12T12:01:17.344Z,44.02
2018-10-12T12:02:17.373Z,44.46
2018-10-12T12:03:17.288Z,47.13
2018-10-12T12:04:17.310Z,47.67
2018-10-12T12:05:17.257Z,48.59
2018-10-12T12:06:17.287Z,49.91
2018-10-12T12:07:17.285Z,50.01
2018-10-12T12:08:17.229Z,50.10
2018-10-12T12:09:17.217Z,50.23
2018-10-12T12:10:17.230Z,50.13
2018-10-12T12:11:17.348Z,51.12
2018-10-12T12:12:17.224Z,49.91
2018-10-12T12:13:17.195Z,48.42
2018-10-12T12:14:17.172Z,47.11
2018-10-12T12:15:17.249Z,46.47
2018-10-12T12:16:17.142Z,45.65
2018-10-12T12:17:17.255Z,46.35
2018-10-12T12:18:17.158Z,46.19
2018-10-12T12:19:17.154Z,46.42
2018-10-12T12:20:17.114Z,47.33
2018-10-12T12:21:17.094Z,47.23
2018-10-12T12:22:17.136Z,48.96
2018-10-12T12:23:17.071Z,48.79
2018-10-12T12:24:17.069Z,49.31
2018-10-12T12:25:17.055Z,50.20
2018-10-12T12:26:17.054Z,49.71
2018-10-12T12:27:17.079Z,49.91
2018-10-12T12:28:17.056Z,49.11
2018-10-12T12:29:17.014Z,50.63
2018-10-12T12:30:16.997Z,50.13
2018-10-12T12:31:16.996Z,50.93
2018-10-12T12:32:16.984Z,50.23
2018-10-12T12:33:17.004Z,50.13
2018-10-12T12:34:16.969Z,50.43
2018-10-12T12:35:17.223Z,50.20
2018-10-12T12:36:17.115Z,50.50
2018-10-12T12:37:16.926Z,50.38
2018-10-12T12:38:16.941Z,48.57
2018-10-12T12:39:16.911Z,48.32
2018-10-12T12:40:16.933Z,46.37
2018-10-12T12:41:16.888Z,45.19
2018-10-12T12:42:16.874Z,42.80
2018-10-12T12:43:16.915Z,42.58
2018-10-12T12:44:16.854Z,41.85
2018-10-12T12:45:16.849Z,41.65
2018-10-12T12:46:16.863Z,41.31
2018-10-12T12:47:16.940Z,40.90
2018-10-12T12:48:17.035Z,39.81
2018-10-12T12:49:17.243Z,40.53
2018-10-12T12:50:16.802Z,40.84
2018-10-12T12:51:16.792Z,41.87
2018-10-12T12:52:16.850Z,42.52
2018-10-12T12:53:16.758Z,44.49